Time;durP1;ratioP1;P1;durP2;ratioP2;P2;SDS_P1;SDS_P2;PMS_P1;PMS_P2;Temp;Humidity;BMP_temperature;BMP_pressure;BME280_temperature;BME280_humidity;BME280_pressure;Samples;Min_cycle;Max_cycle;Signal;HPM_P1;HPM_P2
2023/12/02 00:12:31;;;;;;;19.47;12.47;;;2.00;75.00;;;;;;778491;184;26500;-90
2023/12/02 00:17:50;;;;;;;18.97;12.17;;;2.10;74.00;;;;;;783809;180;26993;-89
2023/12/02 00:28:52;;;;;;;16.80;11.37;;;1.90;74.20;;;;;;762834;187;26505;-89
2023/12/02 00:39:47;;;;;;;19.27;11.17;;;1.90;74.20;;;;;;764082;175;26583;-87
2023/12/02 00:42:32;;;;;;;17.77;12.27;;;1.90;75.70;;;;;;769307;184;26486;-88
2023/12/02 00:50:17;;;;;;;18.47;12.43;;;1.80;79.10;;;;;;778532;183;26475;-89
2023/12/02 00:52:55;;;;;;;15.40;11.33;;;1.90;77.30;;;;;;779318;179;26464;-88
2023/12/02 00:55:24;;;;;;;18.63;12.43;;;1.90;75.80;;;;;;775465;180;26441;-88
2023/12/02 01:03:34;;;;;;;17.23;11.73;;;2.00;73.80;;;;;;720627;185;27089;-89
2023/12/02 01:06:29;;;;;;;;;;;;;;;;;;;;;
2023/12/02 01:08:59;;;;;;;17.50;11.80;;;2.20;75.30;;;;;;763617;184;26440;-88
2023/12/02 01:14:13;;;;;;;17.77;11.53;;;1.90;73.30;;;;;;775666;183;26454;-86
2023/12/02 01:16:55;;;;;;;14.43;10.03;;;1.80;72.20;;;;;;778440;182;26463;-89
2023/12/02 01:19:38;;;;;;;14.53;10.20;;;1.80;72.30;;;;;;763437;184;26554;-86
2023/12/02 01:25:27;;;;;;;;;;;;;;;;;;;;;
2023/12/02 01:28:02;;;;;;;18.30;12.37;;;1.70;73.30;;;;;;774673;181;26537;-88
2023/12/02 01:30:28;;;;;;;18.73;11.77;;;1.80;75.00;;;;;;771842;185;26499;-88
2023/12/02 01:33:08;;;;;;;15.93;10.77;;;1.80;74.20;;;;;;775293;185;26477;-87
2023/12/02 01:35:37;;;;;;;15.97;11.03;;;1.80;75.20;;;;;;777739;183;27108;-88
2023/12/02 01:38:04;;;;;;;16.63;10.40;;;1.80;73.40;;;;;;777341;185;26481;-88
2023/12/02 01:40:30;;;;;;;17.10;11.33;;;1.70;71.70;;;;;;771974;184;26489;-89
2023/12/02 01:42:58;;;;;;;18.13;12.70;;;1.60;72.80;;;;;;772273;185;26543;-89
2023/12/02 01:45:47;;;;;;;15.80;10.73;;;1.60;79.90;;;;;;774871;184;26511;-87
2023/12/02 01:48:26;;;;;;;16.00;10.20;;;1.70;73.50;;;;;;763344;187;26478;-88
2023/12/02 01:51:00;;;;;;;15.37;11.10;;;1.70;71.70;;;;;;773789;182;26485;-90
2023/12/02 01:53:34;;;;;;;18.67;11.27;;;1.80;74.20;;;;;;779251;182;26466;-88
2023/12/02 01:56:01;;;;;;;15.20;10.97;;;1.80;74.80;;;;;;776977;184;26468;-87
2023/12/02 01:58:27;;;;;;;16.73;10.70;;;1.80;72.60;;;;;;777042;184;26560;-91
2023/12/02 02:03:47;;;;;;;15.57;10.73;;;1.70;71.70;;;;;;788455;182;26440;-87
2023/12/02 02:06:16;;;;;;;16.93;10.70;;;1.70;73.20;;;;;;787191;182;26457;-88
2023/12/02 02:08:44;;;;;;;15.20;10.43;;;1.80;74.80;;;;;;776670;182;26481;-88
2023/12/02 02:11:16;;;;;;;19.90;12.37;;;1.70;72.40;;;;;;773506;185;26478;-87
2023/12/02 02:13:44;;;;;;;18.10;12.00;;;1.70;75.60;;;;;;774901;184;28055;-86
2023/12/02 02:16:12;;;;;;;16.20;11.07;;;1.90;78.10;;;;;;770837;184;26483;-89
2023/12/02 02:18:41;;;;;;;18.13;11.03;;;1.90;75.00;;;;;;770462;181;27005;-87
2023/12/02 02:21:08;;;;;;;14.50;10.53;;;2.00;77.30;;;;;;772637;185;26515;-88
2023/12/02 02:23:38;;;;;;;18.23;11.10;;;2.00;74.50;;;;;;775883;184;27033;-90
2023/12/02 02:26:07;;;;;;;16.47;10.87;;;2.00;76.20;;;;;;770748;184;26458;-88
2023/12/02 02:28:40;;;;;;;15.10;10.53;;;2.10;75.80;;;;;;778332;181;26485;-87
2023/12/02 02:31:13;;;;;;;15.70;10.80;;;2.00;74.90;;;;;;778920;184;26468;-87
2023/12/02 02:33:44;;;;;;;16.70;11.27;;;2.00;74.00;;;;;;775572;184;26476;-90
2023/12/02 02:36:18;;;;;;;16.57;10.27;;;2.10;78.60;;;;;;775671;183;26491;-89
2023/12/02 02:38:51;;;;;;;15.87;11.07;;;2.00;74.70;;;;;;785928;180;26471;-89
2023/12/02 02:41:19;;;;;;;17.07;11.33;;;1.90;77.50;;;;;;785657;182;26491;-88
2023/12/02 02:43:46;;;;;;;15.20;10.13;;;1.90;74.20;;;;;;777828;180;28112;-88
2023/12/02 02:46:18;;;;;;;17.37;11.27;;;1.90;74.80;;;;;;772398;183;26525;-88
2023/12/02 02:48:47;;;;;;;17.57;11.17;;;2.00;75.30;;;;;;777781;182;27035;-88
2023/12/02 02:51:20;;;;;;;17.03;10.57;;;2.00;76.70;;;;;;773343;184;27096;-87
2023/12/02 02:53:48;;;;;;;16.03;10.50;;;2.00;73.90;;;;;;774027;184;26463;-88
2023/12/02 02:56:21;;;;;;;16.60;10.33;;;2.10;73.60;;;;;;768837;185;27088;-87
2023/12/02 02:58:48;;;;;;;16.77;10.67;;;2.10;74.80;;;;;;773789;181;26501;-88
2023/12/02 03:01:15;;;;;;;17.03;10.67;;;2.10;74.40;;;;;;772961;185;26563;-87
2023/12/02 03:03:41;;;;;;;18.60;11.40;;;2.00;73.70;;;;;;774190;184;26513;-88
2023/12/02 03:06:08;;;;;;;16.07;10.27;;;2.00;76.30;;;;;;777369;184;26478;-88
2023/12/02 03:14:47;;;;;;;15.97;10.27;;;2.10;73.00;;;;;;773803;185;26439;-90
2023/12/02 03:17:24;;;;;;;17.97;11.77;;;2.10;74.40;;;;;;783689;182;26514;-88
2023/12/02 03:25:42;;;;;;;21.63;13.83;;;1.90;80.70;;;;;;735519;174;26483;-89
2023/12/02 03:28:09;;;;;;;18.67;11.27;;;1.90;82.50;;;;;;792485;180;26715;-89
2023/12/02 03:30:38;;;;;;;17.43;11.87;;;2.00;79.10;;;;;;790088;180;26486;-86
2023/12/02 03:33:06;;;;;;;19.90;12.40;;;2.10;76.40;;;;;;789947;182;27037;-88
2023/12/02 03:36:00;;;;;;;;;;;;;;;;;;;;;
2023/12/02 03:38:32;;;;;;;;;;;;;;;;;;;;;
2023/12/02 03:41:09;;;;;;;;;;;;;;;;;;;;;
2023/12/02 03:43:49;;;;;;;16.37;11.57;;;2.10;77.90;;;;;;802825;178;26446;-88
2023/12/02 03:46:19;;;;;;;17.83;12.80;;;2.10;78.50;;;;;;804268;178;28012;-88
2023/12/02 03:51:48;;;;;;;18.23;12.50;;;2.20;75.50;;;;;;714600;177;26618;-87
2023/12/02 03:54:15;;;;;;;18.37;12.63;;;2.30;75.20;;;;;;768399;187;26528;-89
2023/12/02 03:56:41;;;;;;;18.77;11.37;;;2.40;78.40;;;;;;766633;187;26497;-89
2023/12/02 03:59:33;;;;;;;;;;;;;;;;;;;;;
2023/12/02 04:04:46;;;;;;;18.97;12.53;;;1.80;73.90;;;;;;754147;188;27041;-88
2023/12/02 04:07:44;;;;;;;17.57;11.60;;;2.00;76.90;;;;;;764057;187;26508;-88
2023/12/02 04:09:59;;;;;;;18.03;11.97;;;2.10;78.80;;;;;;762645;185;27064;-89
2023/12/02 04:12:37;;;;;;;15.73;11.40;;;2.20;75.00;;;;;;763666;188;26500;-89
2023/12/02 04:15:10;;;;;;;16.17;11.20;;;2.00;77.80;;;;;;767420;187;26559;-90
2023/12/02 04:17:38;;;;;;;16.67;11.50;;;2.00;75.50;;;;;;767327;187;27042;-88
2023/12/02 04:20:15;;;;;;;15.57;11.03;;;2.20;75.30;;;;;;752407;187;26581;-88
2023/12/02 04:22:39;;;;;;;18.03;11.70;;;2.20;77.90;;;;;;766346;184;26504;-89
2023/12/02 04:25:12;;;;;;;16.90;11.20;;;2.20;76.00;;;;;;762690;184;26534;-88
2023/12/02 04:27:46;;;;;;;16.17;11.23;;;2.30;75.80;;;;;;762774;188;26508;-88
2023/12/02 04:30:27;;;;;;;17.53;12.43;;;2.40;73.80;;;;;;761868;184;26533;-88
2023/12/02 04:33:05;;;;;;;16.53;11.90;;;2.30;77.50;;;;;;762830;188;26583;-88
2023/12/02 04:35:38;;;;;;;16.30;11.60;;;2.30;75.90;;;;;;762684;188;26506;-89
2023/12/02 04:38:08;;;;;;;15.03;10.87;;;2.50;76.50;;;;;;762776;188;28123;-89
2023/12/02 04:40:34;;;;;;;15.27;11.73;;;2.40;74.40;;;;;;760813;187;26527;-89
2023/12/02 04:43:03;;;;;;;15.30;10.87;;;2.30;74.30;;;;;;762814;188;26507;-89
2023/12/02 04:45:29;;;;;;;13.90;9.77;;;2.40;75.70;;;;;;763866;186;27018;-87
2023/12/02 04:48:11;;;;;;;14.83;10.83;;;2.40;72.80;;;;;;766541;180;26494;-90
2023/12/02 04:50:41;;;;;;;14.23;10.53;;;2.30;74.30;;;;;;762984;184;26576;-91
2023/12/02 04:53:09;;;;;;;14.53;10.17;;;2.30;74.00;;;;;;763303;184;26504;-91
2023/12/02 04:55:44;;;;;;;13.10;9.90;;;2.50;73.00;;;;;;765979;184;26523;-93
2023/12/02 04:58:29;;;;;;;13.53;9.77;;;2.40;74.60;;;;;;765520;185;28164;-89
2023/12/02 05:03:54;;;;;;;13.30;9.70;;;2.40;74.10;;;;;;744176;191;26512;-89
2023/12/02 05:26:16;;;;;;;14.20;9.57;;;2.30;72.00;;;;;;700621;175;26535;-87
2023/12/02 05:28:45;;;;;;;12.60;9.10;;;2.30;73.80;;;;;;743080;189;26537;-88
2023/12/02 05:31:22;;;;;;;12.33;9.13;;;2.20;70.40;;;;;;739434;194;26513;-86
2023/12/02 05:33:55;;;;;;;13.23;9.60;;;2.30;71.90;;;;;;750433;191;26552;-87
2023/12/02 05:36:42;;;;;;;16.10;11.20;;;2.30;73.00;;;;;;746048;191;27065;-87
2023/12/02 05:39:33;;;;;;;;;;;;;;;;;;;;;
2023/12/02 05:42:00;;;;;;;14.27;10.50;;;2.40;71.50;;;;;;765982;187;26506;-86
2023/12/02 05:44:30;;;;;;;16.53;11.63;;;2.30;74.20;;;;;;767809;182;26563;-87
2023/12/02 05:47:11;;;;;;;14.47;10.10;;;2.20;77.00;;;;;;767722;187;26482;-86
2023/12/02 05:49:49;;;;;;;;;;;;;;;;;;;;;
2023/12/02 05:52:16;;;;;;;15.90;10.80;;;2.20;74.20;;;;;;767727;184;26503;-90
2023/12/02 05:54:49;;;;;;;14.57;10.40;;;2.30;79.30;;;;;;767885;187;27025;-86
2023/12/02 05:57:16;;;;;;;16.77;10.97;;;2.50;73.50;;;;;;768858;185;26525;-87
2023/12/02 05:59:42;;;;;;;15.57;11.00;;;2.40;74.60;;;;;;770013;183;27242;-89
2023/12/02 06:02:09;;;;;;;14.37;10.27;;;2.40;73.20;;;;;;769475;187;26541;-87
2023/12/02 06:04:35;;;;;;;15.17;11.20;;;2.40;73.10;;;;;;769304;185;26577;-87
2023/12/02 06:07:03;;;;;;;15.27;11.57;;;2.40;79.20;;;;;;768757;182;27045;-87
2023/12/02 06:09:30;;;;;;;16.53;11.90;;;2.40;75.60;;;;;;766953;182;26495;-86
2023/12/02 06:11:56;;;;;;;17.07;11.63;;;2.20;72.60;;;;;;766487;187;26474;-85
2023/12/02 06:14:32;;;;;;;16.30;11.10;;;2.40;75.40;;;;;;768799;187;27103;-87
2023/12/02 06:17:03;;;;;;;15.53;11.30;;;2.40;73.40;;;;;;765540;186;27044;-87
2023/12/02 06:19:31;;;;;;;16.57;11.97;;;2.40;74.40;;;;;;746521;189;27141;-85
2023/12/02 06:21:59;;;;;;;16.17;11.80;;;2.30;72.80;;;;;;744699;192;26575;-87
2023/12/02 06:24:32;;;;;;;15.77;11.60;;;2.20;73.10;;;;;;762949;183;26472;-87
2023/12/02 06:27:05;;;;;;;16.80;11.87;;;2.40;73.40;;;;;;741271;192;26523;-89
2023/12/02 06:29:42;;;;;;;15.73;10.97;;;2.30;73.40;;;;;;748310;189;26541;-86
2023/12/02 06:32:19;;;;;;;14.07;10.53;;;2.30;73.40;;;;;;747423;192;26554;-86
2023/12/02 06:34:54;;;;;;;16.60;11.77;;;2.30;74.30;;;;;;747488;192;26519;-89
2023/12/02 06:40:30;;;;;;;17.23;12.30;;;2.20;74.20;;;;;;767585;184;26505;-91
2023/12/02 06:43:00;;;;;;;16.87;12.00;;;2.00;72.60;;;;;;766413;187;26478;-89
2023/12/02 06:48:26;;;;;;;18.23;13.77;;;2.00;75.00;;;;;;769032;187;26467;-89
2023/12/02 06:50:53;;;;;;;20.47;13.87;;;1.90;77.20;;;;;;768478;184;27019;-87
2023/12/02 06:53:20;;;;;;;18.13;12.53;;;2.10;76.70;;;;;;768294;182;26487;-90
2023/12/02 06:55:47;;;;;;;18.80;12.57;;;2.30;75.70;;;;;;767469;187;26561;-89
2023/12/02 06:58:14;;;;;;;16.93;12.10;;;2.10;72.80;;;;;;746536;191;26594;-88
2023/12/02 07:00:40;;;;;;;18.87;13.23;;;2.20;73.20;;;;;;746236;189;26566;-90
2023/12/02 07:03:08;;;;;;;18.87;12.37;;;2.20;73.50;;;;;;746372;189;26527;-88
2023/12/02 07:05:37;;;;;;;19.00;13.07;;;2.30;73.50;;;;;;746394;189;26546;-88
2023/12/02 07:08:04;;;;;;;18.97;12.67;;;2.30;72.20;;;;;;746253;192;26519;-88
2023/12/02 07:10:31;;;;;;;19.50;12.90;;;2.30;72.80;;;;;;745024;188;27098;-89
2023/12/02 07:13:03;;;;;;;18.73;13.47;;;2.30;72.80;;;;;;744049;192;26530;-88
2023/12/02 07:15:33;;;;;;;18.87;12.83;;;2.30;73.30;;;;;;742438;189;26548;-88
2023/12/02 07:18:01;;;;;;;19.30;12.60;;;2.40;73.00;;;;;;741857;192;26522;-89
2023/12/02 07:20:54;;;;;;;;;;;;;;;;;;;;;
2023/12/02 07:23:11;;;;;;;18.97;12.03;;;2.20;70.50;;;;;;768124;184;26483;-88
2023/12/02 07:25:38;;;;;;;19.80;12.90;;;2.00;71.50;;;;;;769098;182;26487;-89
2023/12/02 07:28:11;;;;;;;18.23;12.27;;;1.90;71.70;;;;;;768836;187;26479;-89
2023/12/02 07:33:28;;;;;;;20.23;13.37;;;1.30;72.40;;;;;;767547;187;27095;-87
2023/12/02 07:35:54;;;;;;;19.53;12.47;;;1.50;75.00;;;;;;768941;187;26486;-90
2023/12/02 07:38:23;;;;;;;19.80;12.63;;;1.60;73.80;;;;;;768931;187;26511;-90
2023/12/02 07:40:52;;;;;;;18.30;12.43;;;1.30;71.70;;;;;;768781;184;26572;-92
2023/12/02 07:43:25;;;;;;;21.33;13.80;;;1.40;73.70;;;;;;768455;182;26495;-92
2023/12/02 07:45:56;;;;;;;20.27;12.30;;;1.40;73.30;;;;;;768290;187;26576;-87
2023/12/02 07:48:23;;;;;;;18.47;11.53;;;1.60;73.20;;;;;;768120;187;26470;-92
2023/12/02 07:50:50;;;;;;;18.77;12.30;;;1.10;71.10;;;;;;767990;184;26585;-92
2023/12/02 07:53:17;;;;;;;22.17;13.57;;;1.20;73.20;;;;;;768134;184;26487;-90
2023/12/02 07:55:49;;;;;;;20.07;13.10;;;1.30;73.00;;;;;;768352;182;26475;-88
2023/12/02 07:58:30;;;;;;;20.10;12.47;;;1.40;72.20;;;;;;768417;182;26483;-90
2023/12/02 08:01:23;;;;;;;18.63;11.93;;;1.10;72.50;;;;;;767359;184;26488;-90
2023/12/02 08:03:53;;;;;;;20.43;13.13;;;1.10;73.70;;;;;;735864;193;26657;-89
2023/12/02 08:06:42;;;;;;;21.60;13.07;;;1.10;75.00;;;;;;733176;196;26556;-92
2023/12/02 08:17:32;;;;;;;19.30;12.23;;;1.20;72.20;;;;;;719878;177;27043;-89
2023/12/02 08:28:38;;;;;;;19.07;13.03;;;1.40;74.40;;;;;;790719;182;27062;-90
2023/12/02 08:31:56;;;;;;;20.37;12.47;;;1.30;72.40;;;;;;778550;181;26469;-89
2023/12/02 08:42:41;;;;;;;24.27;14.13;;;1.60;73.30;;;;;;794171;179;26417;-91
2023/12/02 08:45:29;;;;;;;21.27;12.80;;;1.60;75.10;;;;;;803364;177;26968;-90
2023/12/02 08:56:16;;;;;;;21.37;13.33;;;1.70;71.60;;;;;;730703;191;27159;-88
2023/12/02 09:13:21;;;;;;;24.43;15.10;;;2.40;70.60;;;;;;766285;186;27051;-90
2023/12/02 11:01:27;;;;;;;19.67;12.60;;;2.50;70.00;;;;;;741747;174;26464;-91
2023/12/02 11:55:03;;;;;;;;;;;;;;;;;;;;;
2023/12/02 12:03:16;;;;;;;18.90;13.10;;;3.30;64.20;;;;;;747158;190;26640;-90
2023/12/02 12:11:26;;;;;;;28.57;16.93;;;2.80;66.70;;;;;;728847;176;26505;-89
2023/12/02 12:16:44;;;;;;;17.43;12.23;;;3.10;69.80;;;;;;777074;184;26481;-90
2023/12/02 12:27:18;;;;;;;19.27;12.87;;;2.90;66.60;;;;;;764740;186;27034;-88
2023/12/02 12:32:41;;;;;;;18.40;13.17;;;3.10;67.30;;;;;;754528;189;26497;-91
2023/12/02 12:35:10;;;;;;;17.13;12.10;;;3.20;69.20;;;;;;747650;189;26498;-89
2023/12/02 12:44:22;;;;;;;19.03;11.90;;;2.60;71.20;;;;;;749425;190;26492;-87
2023/12/02 12:55:23;;;;;;;16.70;12.40;;;6.30;56.80;;;;;;729191;196;27168;-89
2023/12/02 12:58:00;;;;;;;42.20;22.70;;;5.40;55.80;;;;;;733616;193;26511;-90
2023/12/02 13:17:02;;;;;;;21.57;15.30;;;6.20;55.90;;;;;;743912;175;26467;-88
2023/12/02 13:19:29;;;;;;;20.40;15.43;;;5.20;58.50;;;;;;780444;183;26482;-88
2023/12/02 13:46:59;;;;;;;61.07;34.80;;;6.50;54.70;;;;;;733257;174;26535;-90
2023/12/02 13:49:29;;;;;;;27.67;17.40;;;5.80;54.90;;;;;;770240;185;27029;-92
2023/12/02 14:03:22;;;;;;;62.03;34.43;;;5.10;57.70;;;;;;736216;195;26542;-89
2023/12/02 14:08:36;;;;;;;40.53;22.70;;;3.10;63.10;;;;;;747721;191;26576;-90
2023/12/02 14:11:36;;;;;;;22.07;14.53;;;2.90;67.40;;;;;;773719;183;26491;-89
2023/12/02 14:13:58;;;;;;;22.07;14.77;;;3.10;67.60;;;;;;751541;188;26787;-90
2023/12/02 14:17:05;;;;;;;;;;;;;;;;;;;;;
2023/12/02 14:36:22;;;;;;;30.87;17.63;;;4.20;63.30;;;;;;782488;180;26419;-88
2023/12/02 14:39:00;;;;;;;;;;;;;;;;;;;;;
2023/12/02 14:41:57;;;;;;;22.10;13.87;;;3.30;66.70;;;;;;789551;179;26482;-87
2023/12/02 14:44:26;;;;;;;29.60;18.27;;;3.10;68.10;;;;;;786987;179;26516;-87
2023/12/02 14:46:55;;;;;;;241.93;102.40;;;3.10;70.00;;;;;;787329;179;26544;-87
2023/12/02 14:49:22;;;;;;;194.30;80.90;;;3.30;71.60;;;;;;787415;177;26492;-88
2023/12/02 14:51:49;;;;;;;332.80;135.03;;;3.30;69.40;;;;;;788091;179;27031;-86
2023/12/02 14:54:15;;;;;;;28.20;16.30;;;3.50;72.00;;;;;;788177;180;26480;-87
2023/12/02 14:56:43;;;;;;;19.90;13.73;;;3.30;68.20;;;;;;785363;178;27001;-86
2023/12/02 14:59:10;;;;;;;19.67;13.40;;;2.80;67.90;;;;;;786210;180;26484;-90
2023/12/02 15:01:38;;;;;;;21.43;14.70;;;2.50;69.60;;;;;;783161;179;28065;-87
2023/12/02 15:06:54;;;;;;;20.67;14.57;;;2.40;72.10;;;;;;789731;182;26442;-88
2023/12/02 15:14:55;;;;;;;23.33;15.07;;;2.40;72.70;;;;;;770467;186;27030;-88
2023/12/02 15:17:22;;;;;;;26.90;15.87;;;2.30;73.10;;;;;;772802;184;26469;-88
2023/12/02 15:19:49;;;;;;;23.27;15.13;;;2.20;72.90;;;;;;775080;185;26496;-89
2023/12/02 15:22:18;;;;;;;25.93;16.47;;;2.20;75.70;;;;;;770608;182;27076;-88
2023/12/02 15:24:43;;;;;;;22.07;14.60;;;2.20;76.00;;;;;;787547;179;26458;-87
2023/12/02 15:27:10;;;;;;;45.67;25.53;;;2.00;74.60;;;;;;787044;180;26470;-89
2023/12/02 15:29:38;;;;;;;126.57;54.53;;;2.00;75.30;;;;;;782794;181;26473;-89
2023/12/02 15:49:13;;;;;;;;;;;;;;;;;;;;;
2023/12/02 15:52:06;;;;;;;160.33;67.10;;;1.50;78.20;;;;;;775913;181;27129;-87
2023/12/02 15:54:58;;;;;;;93.93;46.13;;;1.50;78.20;;;;;;773969;183;26463;-86
2023/12/02 15:57:25;;;;;;;97.30;41.77;;;1.40;76.70;;;;;;768184;184;26492;-87
2023/12/02 16:02:37;;;;;;;43.60;23.47;;;1.40;77.40;;;;;;736618;178;27041;-86
2023/12/02 16:05:04;;;;;;;67.67;32.47;;;1.40;77.50;;;;;;787948;180;26542;-89
2023/12/02 16:27:02;;;;;;;80.47;37.43;;;1.60;78.60;;;;;;749595;171;27231;-87
2023/12/02 16:38:48;;;;;;;;;;;;;;;;;;;;;
2023/12/02 16:46:44;;;;;;;;;;;;;;;;;;;;;
2023/12/02 16:49:41;;;;;;;;;;;;;;;;;;;;;
2023/12/02 16:52:29;;;;;;;179.17;82.40;;;1.70;78.90;;;;;;791505;180;26484;-88
2023/12/02 16:58:11;;;;;;;139.90;57.47;;;1.70;79.20;;;;;;767255;184;26492;-88
2023/12/02 17:42:49;;;;;;;283.40;109.53;;;1.60;78.50;;;;;;817754;175;26388;-89
2023/12/02 17:45:29;;;;;;;;;;;;;;;;;;;;;
2023/12/02 17:56:30;;;;;;;426.80;173.30;;;1.70;78.90;;;;;;704981;176;26590;-89
2023/12/02 20:17:33;;;;;;;243.47;88.50;;;1.60;84.20;;;;;;770880;185;27726;-88
2023/12/02 20:20:30;;;;;;;;;;;;;;;;;;;;;
2023/12/02 20:43:16;;;;;;;;;;;;;;;;;;;;;
2023/12/02 20:51:48;;;;;;;373.53;153.33;;;1.60;83.80;;;;;;732107;196;26638;-88
2023/12/02 21:22:07;;;;;;;123.37;46.80;;;1.90;84.20;;;;;;723996;178;26602;-89
2023/12/02 21:24:34;;;;;;;57.17;28.43;;;1.90;84.20;;;;;;778353;182;26490;-88
2023/12/02 21:27:01;;;;;;;43.87;22.57;;;1.90;84.50;;;;;;788268;182;26464;-89
2023/12/02 21:29:27;;;;;;;47.67;23.37;;;2.10;85.40;;;;;;791206;180;26463;-89
2023/12/02 21:31:54;;;;;;;44.27;23.13;;;2.10;85.30;;;;;;768273;182;27738;-88
2023/12/02 21:34:54;;;;;;;38.57;20.37;;;2.10;85.00;;;;;;775305;184;26488;-88
2023/12/02 22:21:34;;;;;;;42.13;21.33;;;2.20;84.60;;;;;;737220;175;26545;-88
2023/12/02 22:24:01;;;;;;;36.00;20.43;;;2.20;84.60;;;;;;764636;184;28110;-92
2023/12/02 22:26:31;;;;;;;36.00;20.47;;;2.20;83.60;;;;;;764810;186;26503;-89
2023/12/02 22:28:55;;;;;;;38.33;21.80;;;2.10;83.40;;;;;;751301;190;26517;-89
2023/12/02 22:31:23;;;;;;;34.60;20.17;;;2.20;84.20;;;;;;763823;184;27066;-88
2023/12/02 22:45:04;;;;;;;73.37;33.23;;;2.20;82.90;;;;;;745214;173;26931;-88
2023/12/02 22:50:18;;;;;;;40.53;22.03;;;2.20;84.00;;;;;;765182;187;27055;-88
2023/12/02 22:52:52;;;;;;;34.47;19.00;;;2.20;82.80;;;;;;765475;187;26500;-90
2023/12/02 22:55:28;;;;;;;40.37;22.13;;;2.30;83.40;;;;;;779526;183;26536;-88
2023/12/02 22:57:54;;;;;;;63.07;30.47;;;2.20;83.20;;;;;;765557;187;26499;-88
2023/12/02 23:00:31;;;;;;;37.80;19.90;;;2.20;82.80;;;;;;779288;185;26485;-90
2023/12/02 23:02:48;;;;;;;30.30;17.60;;;2.10;82.80;;;;;;765000;187;26515;-90
2023/12/02 23:05:16;;;;;;;49.07;25.80;;;2.20;83.70;;;;;;778888;184;26498;-89
2023/12/02 23:07:48;;;;;;;82.67;38.60;;;2.10;83.80;;;;;;766377;187;27030;-88
2023/12/02 23:10:15;;;;;;;89.33;41.37;;;2.20;84.10;;;;;;779437;183;26479;-90
2023/12/02 23:15:38;;;;;;;56.67;26.33;;;2.00;83.90;;;;;;773770;183;26488;-88
2023/12/02 23:18:20;;;;;;;36.47;21.17;;;2.00;84.30;;;;;;771671;182;26953;-89
2023/12/02 23:20:47;;;;;;;40.23;21.57;;;2.00;85.30;;;;;;760186;188;26575;-87
2023/12/02 23:23:14;;;;;;;120.80;51.37;;;2.20;85.80;;;;;;760455;188;26493;-89
2023/12/02 23:25:43;;;;;;;43.37;22.37;;;2.20;84.40;;;;;;769408;182;27035;-88
2023/12/02 23:28:10;;;;;;;130.97;54.63;;;2.30;84.80;;;;;;780227;183;26477;-87
2023/12/02 23:30:37;;;;;;;85.73;42.27;;;2.20;84.40;;;;;;772314;184;26615;-87
2023/12/02 23:33:03;;;;;;;129.77;56.80;;;2.20;83.60;;;;;;771262;184;26480;-88
2023/12/02 23:35:30;;;;;;;83.10;39.67;;;2.10;83.90;;;;;;753095;188;26545;-88
2023/12/02 23:37:56;;;;;;;170.37;73.93;;;2.10;83.90;;;;;;770989;182;26510;-89
2023/12/02 23:40:25;;;;;;;121.70;51.97;;;2.10;84.20;;;;;;771236;186;26493;-89
2023/12/02 23:42:52;;;;;;;220.53;90.17;;;2.00;84.20;;;;;;766619;184;26498;-89
2023/12/02 23:45:18;;;;;;;83.73;36.43;;;2.00;84.40;;;;;;772221;181;26498;-87
2023/12/02 23:47:45;;;;;;;311.60;119.57;;;2.10;85.50;;;;;;773923;184;26532;-88
2023/12/02 23:50:12;;;;;;;112.73;51.37;;;2.00;85.30;;;;;;767447;182;27020;-88
2023/12/02 23:52:38;;;;;;;120.03;52.93;;;2.10;84.70;;;;;;771704;181;26475;-88
2023/12/02 23:55:05;;;;;;;67.70;33.70;;;2.10;85.50;;;;;;771883;184;26497;-89
2023/12/02 23:57:32;;;;;;;41.03;21.63;;;2.10;84.80;;;;;;768949;186;27052;-88
2023/12/02 23:59:58;;;;;;;39.30;20.50;;;2.20;84.40;;;;;;767776;186;26476;-88
